sensor_id;sensor_type;location;lat;lon;timestamp;P1;durP1;ratioP1;P2;durP2;ratioP2
65715;SDS011;63484;52.054;8.518;2022-10-19T19:16:11;18.55;;;8.88;;
65715;SDS011;63484;52.054;8.518;2022-10-19T19:21:19;19.10;;;8.02;;
65715;SDS011;63484;52.054;8.518;2022-10-19T19:26:22;14.70;;;7.80;;
65715;SDS011;63484;52.054;8.518;2022-10-19T19:31:23;17.63;;;9.15;;
65715;SDS011;63484;52.054;8.518;2022-10-19T19:36:24;14.95;;;7.93;;
65715;SDS011;63484;52.054;8.518;2022-10-19T19:41:25;12.15;;;6.63;;
65715;SDS011;63484;52.054;8.518;2022-10-19T19:46:27;14.38;;;7.00;;
65715;SDS011;63484;52.054;8.518;2022-10-19T19:51:29;13.40;;;7.20;;
65715;SDS011;63484;52.054;8.518;2022-10-19T19:56:31;13.68;;;6.45;;
65715;SDS011;63484;52.054;8.518;2022-10-19T20:01:32;8.63;;;5.13;;
65715;SDS011;63484;52.054;8.518;2022-10-19T20:06:32;8.43;;;5.10;;
65715;SDS011;63484;52.054;8.518;2022-10-19T20:11:35;14.55;;;5.25;;
65715;SDS011;63484;52.054;8.518;2022-10-19T20:16:35;9.77;;;4.72;;
65715;SDS011;63484;52.054;8.518;2022-10-19T20:21:36;8.25;;;4.72;;
65715;SDS011;63484;52.054;8.518;2022-10-19T20:26:37;8.43;;;4.25;;
65715;SDS011;63484;52.054;8.518;2022-10-19T20:31:37;7.40;;;3.47;;
65715;SDS011;63484;52.054;8.518;2022-10-19T20:36:39;7.53;;;3.85;;
65715;SDS011;63484;52.054;8.518;2022-10-19T20:41:40;9.73;;;4.03;;
65715;SDS011;63484;52.054;8.518;2022-10-19T20:46:40;9.48;;;3.65;;
65715;SDS011;63484;52.054;8.518;2022-10-19T20:51:41;5.25;;;2.95;;
65715;SDS011;63484;52.054;8.518;2022-10-19T20:56:41;8.93;;;3.08;;
65715;SDS011;63484;52.054;8.518;2022-10-19T21:01:42;6.10;;;2.78;;
65715;SDS011;63484;52.054;8.518;2022-10-19T21:06:45;5.90;;;3.20;;
65715;SDS011;63484;52.054;8.518;2022-10-19T21:11:47;12.87;;;3.10;;
65715;SDS011;63484;52.054;8.518;2022-10-19T21:16:51;4.70;;;3.08;;
65715;SDS011;63484;52.054;8.518;2022-10-19T21:21:53;4.10;;;2.90;;
65715;SDS011;63484;52.054;8.518;2022-10-19T21:26:55;6.23;;;3.23;;
65715;SDS011;63484;52.054;8.518;2022-10-19T21:31:56;4.30;;;2.75;;
65715;SDS011;63484;52.054;8.518;2022-10-19T21:36:56;5.65;;;3.08;;
65715;SDS011;63484;52.054;8.518;2022-10-19T21:41:57;6.25;;;3.20;;
65715;SDS011;63484;52.054;8.518;2022-10-19T21:46:57;5.60;;;2.95;;
65715;SDS011;63484;52.054;8.518;2022-10-19T21:51:58;8.32;;;3.88;;
65715;SDS011;63484;52.054;8.518;2022-10-19T21:56:58;6.75;;;3.53;;
65715;SDS011;63484;52.054;8.518;2022-10-19T22:02:00;6.93;;;3.47;;
65715;SDS011;63484;52.054;8.518;2022-10-19T22:07:01;6.43;;;4.13;;
65715;SDS011;63484;52.054;8.518;2022-10-19T22:12:01;5.97;;;3.78;;
65715;SDS011;63484;52.054;8.518;2022-10-19T22:17:01;7.40;;;3.20;;
65715;SDS011;63484;52.054;8.518;2022-10-19T22:22:02;6.40;;;2.80;;
65715;SDS011;63484;52.054;8.518;2022-10-19T22:27:02;8.20;;;3.15;;
65715;SDS011;63484;52.054;8.518;2022-10-19T22:32:03;6.57;;;3.38;;
65715;SDS011;63484;52.054;8.518;2022-10-19T22:37:03;5.32;;;3.28;;
65715;SDS011;63484;52.054;8.518;2022-10-19T22:42:04;7.05;;;3.60;;
65715;SDS011;63484;52.054;8.518;2022-10-19T22:47:04;7.95;;;3.47;;
65715;SDS011;63484;52.054;8.518;2022-10-19T22:52:04;8.13;;;3.85;;
65715;SDS011;63484;52.054;8.518;2022-10-19T22:57:05;5.93;;;3.30;;
65715;SDS011;63484;52.054;8.518;2022-10-19T23:02:05;9.88;;;3.70;;
65715;SDS011;63484;52.054;8.518;2022-10-19T23:07:05;9.20;;;4.03;;
65715;SDS011;63484;52.054;8.518;2022-10-19T23:12:06;8.73;;;3.85;;
65715;SDS011;63484;52.054;8.518;2022-10-19T23:17:06;9.25;;;4.00;;
65715;SDS011;63484;52.054;8.518;2022-10-19T23:22:06;7.80;;;4.30;;
65715;SDS011;63484;52.054;8.518;2022-10-19T23:27:07;8.05;;;4.25;;
65715;SDS011;63484;52.054;8.518;2022-10-19T23:32:08;7.75;;;4.28;;
65715;SDS011;63484;52.054;8.518;2022-10-19T23:37:08;9.25;;;4.70;;
65715;SDS011;63484;52.054;8.518;2022-10-19T23:42:09;13.32;;;5.30;;
65715;SDS011;63484;52.054;8.518;2022-10-19T23:47:09;9.50;;;4.53;;
65715;SDS011;63484;52.054;8.518;2022-10-19T23:52:09;9.15;;;5.45;;
65715;SDS011;63484;52.054;8.518;2022-10-19T23:57:10;9.88;;;5.65;;
